Ana Sayfa
METAR-TAF:

METAR-TAF

Havaalanları :

Mataram, Endonezya

Enlem: 08-45-29S, Boylam: 116-16-35E, yükseklik: 97 m

Güncel hava durumu gözlemi

Rapor saat 00:00 UTC de 12 dakika önce yapıldı.
Rüzgar kuzeybatıdan 5 kt, batı ve kuzey/kuzeybatı arasında değişken
Sıcaklık 28°C
Nem 79%
Basınç 1012 hPa
Görüş mesafesi: 8000 m
1600 ft yükseklikte az bulutlu

METAR: WADL 180000Z 31005KT 280V340 8000 FEW016 28/24 Q1012 NOSIG

Saat: 07:12 (00:12 UTC)

Tahmin

Rapor saat 23:00 UTC de 1 saat ve 12 dakika önce yapıldı.
Ayın 18'si saat 00 UTC'den ayın 18'si saat 24 UTC'ye kadar geçerli Tahmin
Rüzgar batı/güneybatıdan 10 kt
Görüş mesafesi: 8000 m
1600 ft yükseklikte parçalı bulutlu

TAF: WADL 172300Z 1800/1824 24010KT 8000 SCT016

4.000'den fazla havaalanı için hava durumu gözlemleri ve tahminleri (METAR ve TAF raporları).

Kullanılabilir istasyonlar harita üzerinde sarı ve kırmızı noktalarla gösterilir.

İstasyonun adını görmek için fareyi noktanın üzerinde gezdirin.

Sonrasında hava gözlem ve tahminlerini görmek için tıklayın.

Haritayı değiştirmek için: yaklaştırmak için siyah artı işaretli yeşil düğmeye ve uzaklaştırmak için de eksi işaretli düğmeye hızla tıklayın; bitişik haritalar için yeşil okları kullanın.


METAR-TAF: